sensor_id;sensor_type;location;lat;lon;timestamp;temperature;humidity
24224;DHT22;12359;49.716;9.212;2023-06-04T00:00:43;14.70;1.00
24224;DHT22;12359;49.716;9.212;2023-06-04T00:03:09;14.50;1.00
24224;DHT22;12359;49.716;9.212;2023-06-04T00:05:35;14.40;1.00
24224;DHT22;12359;49.716;9.212;2023-06-04T00:08:00;14.30;1.00
24224;DHT22;12359;49.716;9.212;2023-06-04T00:10:26;14.20;1.00
24224;DHT22;12359;49.716;9.212;2023-06-04T00:12:52;14.10;1.00
24224;DHT22;12359;49.716;9.212;2023-06-04T00:15:17;14.20;1.00
24224;DHT22;12359;49.716;9.212;2023-06-04T00:17:43;14.10;1.00
24224;DHT22;12359;49.716;9.212;2023-06-04T00:20:09;14.00;1.00
24224;DHT22;12359;49.716;9.212;2023-06-04T00:22:36;14.10;1.00
24224;DHT22;12359;49.716;9.212;2023-06-04T00:25:02;14.10;1.00
24224;DHT22;12359;49.716;9.212;2023-06-04T00:27:28;14.00;1.00
24224;DHT22;12359;49.716;9.212;2023-06-04T00:29:54;13.90;1.00
24224;DHT22;12359;49.716;9.212;2023-06-04T00:32:20;13.90;1.00
24224;DHT22;12359;49.716;9.212;2023-06-04T00:34:53;13.80;1.00
24224;DHT22;12359;49.716;9.212;2023-06-04T00:37:24;13.80;3.50
24224;DHT22;12359;49.716;9.212;2023-06-04T00:39:50;13.80;9.00
24224;DHT22;12359;49.716;9.212;2023-06-04T00:42:17;13.80;10.60
24224;DHT22;12359;49.716;9.212;2023-06-04T00:44:43;13.80;7.90
24224;DHT22;12359;49.716;9.212;2023-06-04T00:47:17;13.80;1.00
24224;DHT22;12359;49.716;9.212;2023-06-04T00:49:44;13.80;7.50
24224;DHT22;12359;49.716;9.212;2023-06-04T00:52:12;13.80;1.00
24224;DHT22;12359;49.716;9.212;2023-06-04T00:54:39;13.80;1.00
24224;DHT22;12359;49.716;9.212;2023-06-04T00:57:06;13.70;3.50
24224;DHT22;12359;49.716;9.212;2023-06-04T00:59:33;13.70;1.00
24224;DHT22;12359;49.716;9.212;2023-06-04T01:07:38;13.60;16.10
24224;DHT22;12359;49.716;9.212;2023-06-04T01:10:06;13.60;14.00
24224;DHT22;12359;49.716;9.212;2023-06-04T01:12:33;13.50;11.30
24224;DHT22;12359;49.716;9.212;2023-06-04T01:14:58;13.50;19.20
24224;DHT22;12359;49.716;9.212;2023-06-04T01:17:36;13.50;9.30
24224;DHT22;12359;49.716;9.212;2023-06-04T01:27:55;13.50;11.20
24224;DHT22;12359;49.716;9.212;2023-06-04T01:30:35;13.40;21.20
24224;DHT22;12359;49.716;9.212;2023-06-04T01:33:02;13.30;67.70
24224;DHT22;12359;49.716;9.212;2023-06-04T01:35:29;13.20;99.90
24224;DHT22;12359;49.716;9.212;2023-06-04T01:37:57;13.00;99.90
24224;DHT22;12359;49.716;9.212;2023-06-04T01:40:23;12.90;99.90
24224;DHT22;12359;49.716;9.212;2023-06-04T01:42:49;12.80;99.90
24224;DHT22;12359;49.716;9.212;2023-06-04T01:45:15;12.80;99.90
24224;DHT22;12359;49.716;9.212;2023-06-04T01:47:40;12.80;99.90
24224;DHT22;12359;49.716;9.212;2023-06-04T01:50:07;12.80;99.90
24224;DHT22;12359;49.716;9.212;2023-06-04T01:52:39;12.70;99.90
24224;DHT22;12359;49.716;9.212;2023-06-04T01:55:07;12.60;99.90
24224;DHT22;12359;49.716;9.212;2023-06-04T01:57:34;12.60;99.90
24224;DHT22;12359;49.716;9.212;2023-06-04T02:00:01;12.50;99.90
24224;DHT22;12359;49.716;9.212;2023-06-04T02:02:27;12.40;99.90
24224;DHT22;12359;49.716;9.212;2023-06-04T02:04:54;12.30;1.00
24224;DHT22;12359;49.716;9.212;2023-06-04T02:07:20;12.10;1.00
24224;DHT22;12359;49.716;9.212;2023-06-04T02:09:49;12.00;1.00
24224;DHT22;12359;49.716;9.212;2023-06-04T02:12:15;12.00;15.60
24224;DHT22;12359;49.716;9.212;2023-06-04T02:14:41;11.90;90.50
24224;DHT22;12359;49.716;9.212;2023-06-04T02:17:08;11.80;99.90
24224;DHT22;12359;49.716;9.212;2023-06-04T02:19:42;11.70;99.90
24224;DHT22;12359;49.716;9.212;2023-06-04T02:22:18;11.60;99.90
24224;DHT22;12359;49.716;9.212;2023-06-04T02:24:44;11.50;99.90
24224;DHT22;12359;49.716;9.212;2023-06-04T02:27:11;11.50;1.00
24224;DHT22;12359;49.716;9.212;2023-06-04T02:29:38;11.40;1.00
24224;DHT22;12359;49.716;9.212;2023-06-04T02:32:05;11.40;6.80
24224;DHT22;12359;49.716;9.212;2023-06-04T02:34:31;11.40;99.90
24224;DHT22;12359;49.716;9.212;2023-06-04T02:36:57;11.20;99.90
24224;DHT22;12359;49.716;9.212;2023-06-04T02:39:23;11.00;99.90
24224;DHT22;12359;49.716;9.212;2023-06-04T02:41:49;11.00;1.00
24224;DHT22;12359;49.716;9.212;2023-06-04T02:44:15;10.90;51.30
24224;DHT22;12359;49.716;9.212;2023-06-04T02:46:41;10.80;99.90
24224;DHT22;12359;49.716;9.212;2023-06-04T02:49:06;10.80;99.90
24224;DHT22;12359;49.716;9.212;2023-06-04T02:51:32;10.90;32.60
24224;DHT22;12359;49.716;9.212;2023-06-04T02:53:58;10.90;1.00
24224;DHT22;12359;49.716;9.212;2023-06-04T02:56:24;10.90;1.00
24224;DHT22;12359;49.716;9.212;2023-06-04T02:58:54;10.90;1.00
24224;DHT22;12359;49.716;9.212;2023-06-04T03:01:23;10.80;1.00
24224;DHT22;12359;49.716;9.212;2023-06-04T03:03:49;10.70;1.00
24224;DHT22;12359;49.716;9.212;2023-06-04T03:06:16;10.70;1.00
24224;DHT22;12359;49.716;9.212;2023-06-04T03:08:43;10.70;1.00
24224;DHT22;12359;49.716;9.212;2023-06-04T03:11:09;10.60;41.50
24224;DHT22;12359;49.716;9.212;2023-06-04T03:13:35;10.60;99.90
24224;DHT22;12359;49.716;9.212;2023-06-04T03:16:02;10.50;1.00
24224;DHT22;12359;49.716;9.212;2023-06-04T03:18:28;10.50;99.90
24224;DHT22;12359;49.716;9.212;2023-06-04T03:20:54;10.40;99.90
24224;DHT22;12359;49.716;9.212;2023-06-04T03:23:23;10.40;96.30
24224;DHT22;12359;49.716;9.212;2023-06-04T03:25:49;10.30;99.90
24224;DHT22;12359;49.716;9.212;2023-06-04T03:28:15;10.30;99.90
24224;DHT22;12359;49.716;9.212;2023-06-04T03:30:41;10.30;1.00
24224;DHT22;12359;49.716;9.212;2023-06-04T03:33:07;10.30;99.90
24224;DHT22;12359;49.716;9.212;2023-06-04T03:35:33;10.20;99.90
24224;DHT22;12359;49.716;9.212;2023-06-04T03:37:58;10.20;99.90
24224;DHT22;12359;49.716;9.212;2023-06-04T03:40:24;10.20;1.00
24224;DHT22;12359;49.716;9.212;2023-06-04T03:42:50;10.20;1.00
24224;DHT22;12359;49.716;9.212;2023-06-04T03:45:15;10.30;1.00
24224;DHT22;12359;49.716;9.212;2023-06-04T03:47:41;10.30;1.00
24224;DHT22;12359;49.716;9.212;2023-06-04T03:50:07;10.30;71.50
24224;DHT22;12359;49.716;9.212;2023-06-04T03:52:33;10.40;1.00
24224;DHT22;12359;49.716;9.212;2023-06-04T03:54:59;10.40;1.00
24224;DHT22;12359;49.716;9.212;2023-06-04T03:57:25;10.40;99.90
24224;DHT22;12359;49.716;9.212;2023-06-04T03:59:52;10.40;99.90
24224;DHT22;12359;49.716;9.212;2023-06-04T04:02:18;10.40;1.00
24224;DHT22;12359;49.716;9.212;2023-06-04T04:04:44;10.40;1.00
24224;DHT22;12359;49.716;9.212;2023-06-04T04:07:10;10.40;1.00
24224;DHT22;12359;49.716;9.212;2023-06-04T04:09:36;10.30;99.90
24224;DHT22;12359;49.716;9.212;2023-06-04T04:12:05;10.20;99.90
24224;DHT22;12359;49.716;9.212;2023-06-04T04:14:31;10.30;99.90
24224;DHT22;12359;49.716;9.212;2023-06-04T04:16:56;10.20;1.00
24224;DHT22;12359;49.716;9.212;2023-06-04T04:19:22;10.30;99.90
24224;DHT22;12359;49.716;9.212;2023-06-04T04:21:47;10.40;1.00
24224;DHT22;12359;49.716;9.212;2023-06-04T04:24:34;10.40;99.90
24224;DHT22;12359;49.716;9.212;2023-06-04T04:27:01;10.50;1.00
24224;DHT22;12359;49.716;9.212;2023-06-04T04:29:30;10.50;8.10
24224;DHT22;12359;49.716;9.212;2023-06-04T04:32:00;10.60;99.90
24224;DHT22;12359;49.716;9.212;2023-06-04T04:34:27;10.70;15.70
24224;DHT22;12359;49.716;9.212;2023-06-04T04:36:53;10.80;47.60
24224;DHT22;12359;49.716;9.212;2023-06-04T04:39:23;11.00;99.90
24224;DHT22;12359;49.716;9.212;2023-06-04T04:41:51;11.10;99.90
24224;DHT22;12359;49.716;9.212;2023-06-04T04:44:17;11.20;99.90
24224;DHT22;12359;49.716;9.212;2023-06-04T04:46:43;11.30;29.80
24224;DHT22;12359;49.716;9.212;2023-06-04T04:49:09;11.40;1.00
24224;DHT22;12359;49.716;9.212;2023-06-04T04:51:35;11.40;99.90
24224;DHT22;12359;49.716;9.212;2023-06-04T04:54:02;11.50;99.90
24224;DHT22;12359;49.716;9.212;2023-06-04T04:56:28;11.60;99.90
24224;DHT22;12359;49.716;9.212;2023-06-04T04:58:54;11.70;1.00
24224;DHT22;12359;49.716;9.212;2023-06-04T05:01:20;11.80;1.00
24224;DHT22;12359;49.716;9.212;2023-06-04T05:03:46;12.00;1.00
24224;DHT22;12359;49.716;9.212;2023-06-04T05:06:12;12.10;99.90
24224;DHT22;12359;49.716;9.212;2023-06-04T05:08:38;12.30;99.90
24224;DHT22;12359;49.716;9.212;2023-06-04T05:11:03;12.40;1.00
24224;DHT22;12359;49.716;9.212;2023-06-04T05:13:31;12.40;99.90
24224;DHT22;12359;49.716;9.212;2023-06-04T05:15:57;12.50;1.00
24224;DHT22;12359;49.716;9.212;2023-06-04T05:18:23;12.50;1.00
24224;DHT22;12359;49.716;9.212;2023-06-04T05:20:54;12.60;99.90
24224;DHT22;12359;49.716;9.212;2023-06-04T05:23:20;12.80;99.90
24224;DHT22;12359;49.716;9.212;2023-06-04T05:25:46;13.00;99.90
24224;DHT22;12359;49.716;9.212;2023-06-04T05:28:14;13.30;1.00
24224;DHT22;12359;49.716;9.212;2023-06-04T05:30:40;13.30;99.90
24224;DHT22;12359;49.716;9.212;2023-06-04T05:33:10;13.50;99.90
24224;DHT22;12359;49.716;9.212;2023-06-04T05:35:44;13.80;90.90
24224;DHT22;12359;49.716;9.212;2023-06-04T05:38:09;14.10;99.90
24224;DHT22;12359;49.716;9.212;2023-06-04T05:40:35;14.20;99.90
24224;DHT22;12359;49.716;9.212;2023-06-04T05:43:01;14.40;99.90
24224;DHT22;12359;49.716;9.212;2023-06-04T05:45:27;14.50;99.90
24224;DHT22;12359;49.716;9.212;2023-06-04T05:47:53;14.70;38.70
24224;DHT22;12359;49.716;9.212;2023-06-04T05:50:20;14.70;73.60
24224;DHT22;12359;49.716;9.212;2023-06-04T05:52:45;14.90;33.40
24224;DHT22;12359;49.716;9.212;2023-06-04T05:55:11;15.10;1.70
24224;DHT22;12359;49.716;9.212;2023-06-04T05:57:37;15.20;1.00
24224;DHT22;12359;49.716;9.212;2023-06-04T06:00:03;15.20;99.90
24224;DHT22;12359;49.716;9.212;2023-06-04T06:02:34;15.50;99.90
24224;DHT22;12359;49.716;9.212;2023-06-04T06:05:00;15.60;99.90
24224;DHT22;12359;49.716;9.212;2023-06-04T06:07:25;15.70;99.90
24224;DHT22;12359;49.716;9.212;2023-06-04T06:09:51;15.80;99.90
24224;DHT22;12359;49.716;9.212;2023-06-04T06:12:17;15.90;99.90
24224;DHT22;12359;49.716;9.212;2023-06-04T06:14:43;16.10;89.40
24224;DHT22;12359;49.716;9.212;2023-06-04T06:17:08;16.30;57.30
24224;DHT22;12359;49.716;9.212;2023-06-04T06:19:36;16.40;28.40
24224;DHT22;12359;49.716;9.212;2023-06-04T06:22:03;16.80;27.40
24224;DHT22;12359;49.716;9.212;2023-06-04T06:24:30;17.30;6.70
24224;DHT22;12359;49.716;9.212;2023-06-04T06:26:55;17.90;1.00
24224;DHT22;12359;49.716;9.212;2023-06-04T06:29:21;18.20;1.00
24224;DHT22;12359;49.716;9.212;2023-06-04T06:31:47;18.60;1.00
24224;DHT22;12359;49.716;9.212;2023-06-04T06:34:13;19.30;1.00
24224;DHT22;12359;49.716;9.212;2023-06-04T06:36:39;19.80;1.00
24224;DHT22;12359;49.716;9.212;2023-06-04T06:39:04;20.30;1.00
24224;DHT22;12359;49.716;9.212;2023-06-04T06:41:30;21.10;1.00
24224;DHT22;12359;49.716;9.212;2023-06-04T06:43:59;21.80;1.00
24224;DHT22;12359;49.716;9.212;2023-06-04T06:46:24;22.40;1.00
24224;DHT22;12359;49.716;9.212;2023-06-04T06:48:50;23.10;1.00
24224;DHT22;12359;49.716;9.212;2023-06-04T06:51:16;23.80;99.90
24224;DHT22;12359;49.716;9.212;2023-06-04T06:53:42;24.40;99.90
24224;DHT22;12359;49.716;9.212;2023-06-04T06:56:08;24.80;99.90
24224;DHT22;12359;49.716;9.212;2023-06-04T06:58:34;25.40;99.90
24224;DHT22;12359;49.716;9.212;2023-06-04T07:00:59;25.10;99.90
24224;DHT22;12359;49.716;9.212;2023-06-04T07:03:25;25.00;99.90
24224;DHT22;12359;49.716;9.212;2023-06-04T07:05:51;24.80;99.90
24224;DHT22;12359;49.716;9.212;2023-06-04T07:08:17;24.50;99.90
24224;DHT22;12359;49.716;9.212;2023-06-04T07:10:43;23.70;99.90
24224;DHT22;12359;49.716;9.212;2023-06-04T07:13:09;24.20;99.90
24224;DHT22;12359;49.716;9.212;2023-06-04T07:15:34;24.50;99.90
24224;DHT22;12359;49.716;9.212;2023-06-04T07:18:00;24.30;99.90
24224;DHT22;12359;49.716;9.212;2023-06-04T07:20:26;24.60;99.90
24224;DHT22;12359;49.716;9.212;2023-06-04T07:22:52;24.50;99.90
24224;DHT22;12359;49.716;9.212;2023-06-04T07:25:17;24.30;99.90
24224;DHT22;12359;49.716;9.212;2023-06-04T07:27:43;24.50;99.90
24224;DHT22;12359;49.716;9.212;2023-06-04T07:30:09;24.70;99.90
24224;DHT22;12359;49.716;9.212;2023-06-04T07:32:35;25.00;99.90
24224;DHT22;12359;49.716;9.212;2023-06-04T07:35:02;25.80;99.90
24224;DHT22;12359;49.716;9.212;2023-06-04T07:37:28;26.10;99.90
24224;DHT22;12359;49.716;9.212;2023-06-04T07:39:53;26.10;99.90
24224;DHT22;12359;49.716;9.212;2023-06-04T07:42:19;26.50;99.90
24224;DHT22;12359;49.716;9.212;2023-06-04T07:44:45;26.40;99.90
24224;DHT22;12359;49.716;9.212;2023-06-04T07:47:10;25.80;99.90
24224;DHT22;12359;49.716;9.212;2023-06-04T07:49:36;25.30;99.90
24224;DHT22;12359;49.716;9.212;2023-06-04T07:52:02;24.80;99.90
24224;DHT22;12359;49.716;9.212;2023-06-04T07:54:27;24.70;99.90
24224;DHT22;12359;49.716;9.212;2023-06-04T07:56:53;24.20;99.90
24224;DHT22;12359;49.716;9.212;2023-06-04T07:59:22;24.60;99.90
24224;DHT22;12359;49.716;9.212;2023-06-04T08:01:50;24.40;99.90
24224;DHT22;12359;49.716;9.212;2023-06-04T08:04:17;24.10;99.90
24224;DHT22;12359;49.716;9.212;2023-06-04T08:06:42;23.90;99.90
24224;DHT22;12359;49.716;9.212;2023-06-04T08:09:10;24.30;99.90
24224;DHT22;12359;49.716;9.212;2023-06-04T08:11:38;24.40;99.90
24224;DHT22;12359;49.716;9.212;2023-06-04T08:14:04;24.90;99.90
24224;DHT22;12359;49.716;9.212;2023-06-04T08:16:31;25.10;99.90
24224;DHT22;12359;49.716;9.212;2023-06-04T08:18:57;25.70;99.90
24224;DHT22;12359;49.716;9.212;2023-06-04T08:21:27;25.40;99.90
24224;DHT22;12359;49.716;9.212;2023-06-04T08:23:52;25.00;99.90
24224;DHT22;12359;49.716;9.212;2023-06-04T08:26:19;24.90;99.90
24224;DHT22;12359;49.716;9.212;2023-06-04T08:28:47;25.00;99.90
24224;DHT22;12359;49.716;9.212;2023-06-04T08:31:14;24.90;99.90
24224;DHT22;12359;49.716;9.212;2023-06-04T08:33:39;24.70;99.90
24224;DHT22;12359;49.716;9.212;2023-06-04T08:36:05;24.80;99.90
24224;DHT22;12359;49.716;9.212;2023-06-04T08:38:31;25.20;99.90
24224;DHT22;12359;49.716;9.212;2023-06-04T08:43:46;24.90;99.90
24224;DHT22;12359;49.716;9.212;2023-06-04T08:46:15;25.40;99.90
24224;DHT22;12359;49.716;9.212;2023-06-04T08:48:43;25.80;99.90
24224;DHT22;12359;49.716;9.212;2023-06-04T08:51:11;25.70;99.90
24224;DHT22;12359;49.716;9.212;2023-06-04T08:53:37;26.10;99.90
24224;DHT22;12359;49.716;9.212;2023-06-04T08:56:03;27.00;99.90
24224;DHT22;12359;49.716;9.212;2023-06-04T08:58:32;27.50;99.90
24224;DHT22;12359;49.716;9.212;2023-06-04T09:01:01;27.50;99.90
24224;DHT22;12359;49.716;9.212;2023-06-04T09:03:28;27.20;99.90
24224;DHT22;12359;49.716;9.212;2023-06-04T09:05:57;26.80;99.90
24224;DHT22;12359;49.716;9.212;2023-06-04T09:08:24;26.80;99.90
24224;DHT22;12359;49.716;9.212;2023-06-04T09:10:54;27.00;99.90
24224;DHT22;12359;49.716;9.212;2023-06-04T09:13:22;27.30;99.90
24224;DHT22;12359;49.716;9.212;2023-06-04T09:16:03;27.50;99.90
24224;DHT22;12359;49.716;9.212;2023-06-04T09:18:29;27.70;99.90
24224;DHT22;12359;49.716;9.212;2023-06-04T09:21:05;27.40;99.90
24224;DHT22;12359;49.716;9.212;2023-06-04T09:23:34;26.80;99.90
24224;DHT22;12359;49.716;9.212;2023-06-04T09:26:08;26.30;99.90
24224;DHT22;12359;49.716;9.212;2023-06-04T09:28:34;26.40;99.90
24224;DHT22;12359;49.716;9.212;2023-06-04T09:31:00;26.20;99.90
24224;DHT22;12359;49.716;9.212;2023-06-04T09:33:27;26.10;99.90
24224;DHT22;12359;49.716;9.212;2023-06-04T09:35:55;25.70;99.90
24224;DHT22;12359;49.716;9.212;2023-06-04T09:38:21;25.60;99.90
24224;DHT22;12359;49.716;9.212;2023-06-04T09:40:47;26.30;99.90
24224;DHT22;12359;49.716;9.212;2023-06-04T09:43:23;26.20;99.90
24224;DHT22;12359;49.716;9.212;2023-06-04T09:45:49;26.60;99.90
24224;DHT22;12359;49.716;9.212;2023-06-04T09:48:21;26.70;99.90
24224;DHT22;12359;49.716;9.212;2023-06-04T09:50:48;26.70;99.90
24224;DHT22;12359;49.716;9.212;2023-06-04T09:53:14;26.40;99.90
24224;DHT22;12359;49.716;9.212;2023-06-04T09:55:41;26.60;99.90
24224;DHT22;12359;49.716;9.212;2023-06-04T09:58:07;27.00;99.90
24224;DHT22;12359;49.716;9.212;2023-06-04T10:00:34;27.30;99.90
24224;DHT22;12359;49.716;9.212;2023-06-04T10:03:02;27.20;99.90
24224;DHT22;12359;49.716;9.212;2023-06-04T10:05:32;27.20;99.90
24224;DHT22;12359;49.716;9.212;2023-06-04T10:08:03;27.60;99.90
24224;DHT22;12359;49.716;9.212;2023-06-04T10:10:35;28.20;99.90
24224;DHT22;12359;49.716;9.212;2023-06-04T10:13:08;28.40;99.90
24224;DHT22;12359;49.716;9.212;2023-06-04T10:15:36;28.70;99.90
24224;DHT22;12359;49.716;9.212;2023-06-04T10:18:02;29.00;99.90
24224;DHT22;12359;49.716;9.212;2023-06-04T10:20:30;29.50;99.90
24224;DHT22;12359;49.716;9.212;2023-06-04T10:22:56;29.70;99.90
24224;DHT22;12359;49.716;9.212;2023-06-04T10:25:23;29.70;99.90
24224;DHT22;12359;49.716;9.212;2023-06-04T10:27:52;29.80;99.90
24224;DHT22;12359;49.716;9.212;2023-06-04T10:30:18;29.60;99.90
24224;DHT22;12359;49.716;9.212;2023-06-04T10:32:44;29.60;99.90
24224;DHT22;12359;49.716;9.212;2023-06-04T10:35:10;29.70;99.90
24224;DHT22;12359;49.716;9.212;2023-06-04T10:37:36;29.20;99.90
24224;DHT22;12359;49.716;9.212;2023-06-04T10:40:02;29.50;99.90
24224;DHT22;12359;49.716;9.212;2023-06-04T10:42:41;29.50;99.90
24224;DHT22;12359;49.716;9.212;2023-06-04T10:45:08;29.80;99.90
24224;DHT22;12359;49.716;9.212;2023-06-04T10:47:35;29.60;99.90
24224;DHT22;12359;49.716;9.212;2023-06-04T10:50:12;29.90;99.90
24224;DHT22;12359;49.716;9.212;2023-06-04T10:52:58;29.60;99.90
24224;DHT22;12359;49.716;9.212;2023-06-04T10:55:29;29.00;99.90
24224;DHT22;12359;49.716;9.212;2023-06-04T10:57:56;28.40;99.90
24224;DHT22;12359;49.716;9.212;2023-06-04T11:00:22;28.00;99.90
24224;DHT22;12359;49.716;9.212;2023-06-04T11:02:59;27.10;99.90
24224;DHT22;12359;49.716;9.212;2023-06-04T11:08:08;27.60;99.90
24224;DHT22;12359;49.716;9.212;2023-06-04T11:10:44;27.90;99.90
24224;DHT22;12359;49.716;9.212;2023-06-04T11:13:10;28.40;99.90
24224;DHT22;12359;49.716;9.212;2023-06-04T11:15:45;28.90;99.90
24224;DHT22;12359;49.716;9.212;2023-06-04T11:18:18;28.90;99.90
24224;DHT22;12359;49.716;9.212;2023-06-04T11:20:46;29.20;99.90
24224;DHT22;12359;49.716;9.212;2023-06-04T11:23:15;29.00;99.90
24224;DHT22;12359;49.716;9.212;2023-06-04T11:25:42;28.30;99.90
24224;DHT22;12359;49.716;9.212;2023-06-04T11:28:17;27.80;99.90
24224;DHT22;12359;49.716;9.212;2023-06-04T11:30:57;27.80;99.90
24224;DHT22;12359;49.716;9.212;2023-06-04T11:33:23;27.60;99.90
24224;DHT22;12359;49.716;9.212;2023-06-04T11:35:49;28.10;99.90
24224;DHT22;12359;49.716;9.212;2023-06-04T11:38:14;27.70;99.90
24224;DHT22;12359;49.716;9.212;2023-06-04T11:40:40;27.50;99.90
24224;DHT22;12359;49.716;9.212;2023-06-04T11:43:10;27.30;99.90
24224;DHT22;12359;49.716;9.212;2023-06-04T11:45:36;27.10;99.90
24224;DHT22;12359;49.716;9.212;2023-06-04T11:48:04;27.40;99.90
24224;DHT22;12359;49.716;9.212;2023-06-04T11:50:31;27.70;99.90
24224;DHT22;12359;49.716;9.212;2023-06-04T11:52:56;27.90;99.90
24224;DHT22;12359;49.716;9.212;2023-06-04T11:55:22;28.20;99.90
24224;DHT22;12359;49.716;9.212;2023-06-04T11:57:51;28.70;99.90
24224;DHT22;12359;49.716;9.212;2023-06-04T12:00:19;29.20;99.90
24224;DHT22;12359;49.716;9.212;2023-06-04T12:05:17;29.40;99.90
24224;DHT22;12359;49.716;9.212;2023-06-04T12:07:47;28.80;99.90
24224;DHT22;12359;49.716;9.212;2023-06-04T12:10:19;28.30;99.90
24224;DHT22;12359;49.716;9.212;2023-06-04T12:12:45;28.10;99.90
24224;DHT22;12359;49.716;9.212;2023-06-04T12:15:18;28.10;99.90
24224;DHT22;12359;49.716;9.212;2023-06-04T12:17:52;28.30;99.90
24224;DHT22;12359;49.716;9.212;2023-06-04T12:20:27;28.60;99.90
24224;DHT22;12359;49.716;9.212;2023-06-04T12:22:55;28.70;99.90
24224;DHT22;12359;49.716;9.212;2023-06-04T12:25:25;28.70;99.90
24224;DHT22;12359;49.716;9.212;2023-06-04T12:27:53;28.70;99.90
24224;DHT22;12359;49.716;9.212;2023-06-04T12:30:20;28.70;99.90
24224;DHT22;12359;49.716;9.212;2023-06-04T12:32:45;28.70;99.90
24224;DHT22;12359;49.716;9.212;2023-06-04T12:35:11;28.70;99.90
24224;DHT22;12359;49.716;9.212;2023-06-04T12:37:37;28.70;99.90
24224;DHT22;12359;49.716;9.212;2023-06-04T12:40:03;28.80;99.90
24224;DHT22;12359;49.716;9.212;2023-06-04T12:42:31;28.80;99.90
24224;DHT22;12359;49.716;9.212;2023-06-04T12:44:57;28.90;99.90
24224;DHT22;12359;49.716;9.212;2023-06-04T12:47:23;28.90;99.90
24224;DHT22;12359;49.716;9.212;2023-06-04T12:49:49;29.10;99.90
24224;DHT22;12359;49.716;9.212;2023-06-04T12:52:16;29.20;99.90
24224;DHT22;12359;49.716;9.212;2023-06-04T12:54:42;29.20;99.90
24224;DHT22;12359;49.716;9.212;2023-06-04T12:57:08;29.10;99.90
24224;DHT22;12359;49.716;9.212;2023-06-04T12:59:34;28.50;99.90
24224;DHT22;12359;49.716;9.212;2023-06-04T13:02:00;28.30;99.90
24224;DHT22;12359;49.716;9.212;2023-06-04T13:04:25;28.20;99.90
24224;DHT22;12359;49.716;9.212;2023-06-04T13:06:51;28.40;99.90
24224;DHT22;12359;49.716;9.212;2023-06-04T13:09:24;28.50;99.90
24224;DHT22;12359;49.716;9.212;2023-06-04T13:11:51;28.40;99.90
24224;DHT22;12359;49.716;9.212;2023-06-04T13:14:17;28.60;99.90
24224;DHT22;12359;49.716;9.212;2023-06-04T13:16:42;28.50;99.90
24224;DHT22;12359;49.716;9.212;2023-06-04T13:19:10;28.50;99.90
24224;DHT22;12359;49.716;9.212;2023-06-04T13:21:36;28.60;99.90
24224;DHT22;12359;49.716;9.212;2023-06-04T13:24:02;28.50;99.90
24224;DHT22;12359;49.716;9.212;2023-06-04T13:26:27;28.40;99.90
24224;DHT22;12359;49.716;9.212;2023-06-04T13:28:53;28.40;99.90
24224;DHT22;12359;49.716;9.212;2023-06-04T13:31:19;28.40;99.90
24224;DHT22;12359;49.716;9.212;2023-06-04T13:33:44;27.90;99.90
24224;DHT22;12359;49.716;9.212;2023-06-04T13:36:10;28.00;99.90
24224;DHT22;12359;49.716;9.212;2023-06-04T13:38:36;27.90;99.90
24224;DHT22;12359;49.716;9.212;2023-06-04T13:41:01;27.90;99.90
24224;DHT22;12359;49.716;9.212;2023-06-04T13:43:27;27.80;99.90
24224;DHT22;12359;49.716;9.212;2023-06-04T13:45:53;27.40;99.90
24224;DHT22;12359;49.716;9.212;2023-06-04T13:48:27;26.90;99.90
24224;DHT22;12359;49.716;9.212;2023-06-04T13:50:53;26.20;99.90
24224;DHT22;12359;49.716;9.212;2023-06-04T13:53:19;26.00;99.90
24224;DHT22;12359;49.716;9.212;2023-06-04T13:55:45;26.10;99.90
24224;DHT22;12359;49.716;9.212;2023-06-04T13:58:11;26.30;99.90
24224;DHT22;12359;49.716;9.212;2023-06-04T14:00:37;26.20;99.90
24224;DHT22;12359;49.716;9.212;2023-06-04T14:03:03;26.20;99.90
24224;DHT22;12359;49.716;9.212;2023-06-04T14:05:29;26.50;99.90
24224;DHT22;12359;49.716;9.212;2023-06-04T14:07:55;26.50;99.90
24224;DHT22;12359;49.716;9.212;2023-06-04T14:10:21;26.60;99.90
24224;DHT22;12359;49.716;9.212;2023-06-04T14:12:47;26.70;99.90
24224;DHT22;12359;49.716;9.212;2023-06-04T14:15:12;26.90;99.90
24224;DHT22;12359;49.716;9.212;2023-06-04T14:17:39;27.00;99.90
24224;DHT22;12359;49.716;9.212;2023-06-04T14:20:05;27.00;99.90
24224;DHT22;12359;49.716;9.212;2023-06-04T14:22:38;26.90;99.90
24224;DHT22;12359;49.716;9.212;2023-06-04T14:25:04;26.70;99.90
24224;DHT22;12359;49.716;9.212;2023-06-04T14:27:30;26.60;99.90
24224;DHT22;12359;49.716;9.212;2023-06-04T14:29:56;26.70;99.90
24224;DHT22;12359;49.716;9.212;2023-06-04T14:32:22;26.80;99.90
24224;DHT22;12359;49.716;9.212;2023-06-04T14:34:48;26.90;99.90
24224;DHT22;12359;49.716;9.212;2023-06-04T14:37:13;27.00;99.90
24224;DHT22;12359;49.716;9.212;2023-06-04T14:39:39;27.10;99.90
24224;DHT22;12359;49.716;9.212;2023-06-04T14:42:05;27.20;99.90
24224;DHT22;12359;49.716;9.212;2023-06-04T14:44:31;26.90;99.90
24224;DHT22;12359;49.716;9.212;2023-06-04T14:46:58;26.90;99.90
24224;DHT22;12359;49.716;9.212;2023-06-04T14:49:23;26.90;99.90
24224;DHT22;12359;49.716;9.212;2023-06-04T14:51:49;26.90;99.90
24224;DHT22;12359;49.716;9.212;2023-06-04T14:54:15;26.60;99.90
24224;DHT22;12359;49.716;9.212;2023-06-04T14:56:41;26.30;99.90
24224;DHT22;12359;49.716;9.212;2023-06-04T14:59:07;25.90;99.90
24224;DHT22;12359;49.716;9.212;2023-06-04T15:01:37;26.00;99.90
24224;DHT22;12359;49.716;9.212;2023-06-04T15:04:03;26.30;99.90
24224;DHT22;12359;49.716;9.212;2023-06-04T15:06:29;26.40;99.90
24224;DHT22;12359;49.716;9.212;2023-06-04T15:08:55;26.00;99.90
24224;DHT22;12359;49.716;9.212;2023-06-04T15:11:21;26.00;99.90
24224;DHT22;12359;49.716;9.212;2023-06-04T15:13:46;25.80;99.90
24224;DHT22;12359;49.716;9.212;2023-06-04T15:16:12;25.70;99.90
24224;DHT22;12359;49.716;9.212;2023-06-04T15:18:38;25.90;99.90
24224;DHT22;12359;49.716;9.212;2023-06-04T15:21:04;26.00;99.90
24224;DHT22;12359;49.716;9.212;2023-06-04T15:23:29;26.20;99.90
24224;DHT22;12359;49.716;9.212;2023-06-04T15:25:55;26.10;99.90
24224;DHT22;12359;49.716;9.212;2023-06-04T15:28:21;25.90;99.90
24224;DHT22;12359;49.716;9.212;2023-06-04T15:30:47;25.90;99.90
24224;DHT22;12359;49.716;9.212;2023-06-04T15:33:12;25.70;99.90
24224;DHT22;12359;49.716;9.212;2023-06-04T15:35:38;25.70;99.90
24224;DHT22;12359;49.716;9.212;2023-06-04T15:38:04;25.80;99.90
24224;DHT22;12359;49.716;9.212;2023-06-04T15:40:29;25.90;99.90
24224;DHT22;12359;49.716;9.212;2023-06-04T15:42:55;25.90;99.90
24224;DHT22;12359;49.716;9.212;2023-06-04T15:45:21;26.00;99.90
24224;DHT22;12359;49.716;9.212;2023-06-04T15:47:52;25.90;99.90
24224;DHT22;12359;49.716;9.212;2023-06-04T15:50:18;26.00;99.90
24224;DHT22;12359;49.716;9.212;2023-06-04T15:52:45;26.10;99.90
24224;DHT22;12359;49.716;9.212;2023-06-04T15:55:11;26.20;99.90